sensor_id;sensor_type;location;lat;lon;timestamp;pressure;altitude;pressure_sealevel;temperature;humidity
46714;BME280;32445;51.376;10.874;2023-03-14T00:00:36;97134.25;;;13.05;54.36
46714;BME280;32445;51.376;10.874;2023-03-14T00:03:37;97115.31;;;13.03;54.54
46714;BME280;32445;51.376;10.874;2023-03-14T00:06:37;97113.41;;;13.05;55.01
46714;BME280;32445;51.376;10.874;2023-03-14T00:09:37;97104.41;;;12.97;54.64
46714;BME280;32445;51.376;10.874;2023-03-14T00:12:38;97096.59;;;12.97;54.73
46714;BME280;32445;51.376;10.874;2023-03-14T00:15:39;97109.03;;;12.94;54.65
46714;BME280;32445;51.376;10.874;2023-03-14T00:18:39;97126.50;;;12.92;54.17
46714;BME280;32445;51.376;10.874;2023-03-14T00:21:40;97133.84;;;12.87;54.34
46714;BME280;32445;51.376;10.874;2023-03-14T00:24:40;97144.47;;;12.84;54.59
46714;BME280;32445;51.376;10.874;2023-03-14T00:27:40;97160.19;;;12.82;54.34
46714;BME280;32445;51.376;10.874;2023-03-14T00:30:41;97173.31;;;12.80;54.46
46714;BME280;32445;51.376;10.874;2023-03-14T00:33:42;97194.38;;;12.77;54.21
46714;BME280;32445;51.376;10.874;2023-03-14T00:36:44;97202.41;;;12.74;54.58
46714;BME280;32445;51.376;10.874;2023-03-14T00:39:45;97192.00;;;12.74;54.27
46714;BME280;32445;51.376;10.874;2023-03-14T00:42:45;97199.81;;;12.74;54.48
46714;BME280;32445;51.376;10.874;2023-03-14T00:45:45;97198.25;;;12.72;54.52
46714;BME280;32445;51.376;10.874;2023-03-14T00:48:46;97207.09;;;12.69;54.85
46714;BME280;32445;51.376;10.874;2023-03-14T00:51:47;97202.97;;;12.67;54.83
46714;BME280;32445;51.376;10.874;2023-03-14T00:54:47;97235.25;;;12.64;54.75
46714;BME280;32445;51.376;10.874;2023-03-14T00:57:47;97224.22;;;12.60;54.95
46714;BME280;32445;51.376;10.874;2023-03-14T01:00:48;97243.28;;;12.61;54.87
46714;BME280;32445;51.376;10.874;2023-03-14T01:03:53;97247.75;;;12.59;55.33
46714;BME280;32445;51.376;10.874;2023-03-14T01:06:53;97253.06;;;12.57;55.15
46714;BME280;32445;51.376;10.874;2023-03-14T01:09:54;97257.22;;;12.60;55.25
46714;BME280;32445;51.376;10.874;2023-03-14T01:12:54;97283.34;;;12.58;55.21
46714;BME280;32445;51.376;10.874;2023-03-14T01:15:54;97249.63;;;12.57;55.18
46714;BME280;32445;51.376;10.874;2023-03-14T01:18:55;97230.56;;;12.56;55.44
46714;BME280;32445;51.376;10.874;2023-03-14T01:21:55;97232.25;;;12.57;55.40
46714;BME280;32445;51.376;10.874;2023-03-14T01:24:56;97221.00;;;12.57;55.39
46714;BME280;32445;51.376;10.874;2023-03-14T01:27:56;97209.88;;;12.55;55.64
46714;BME280;32445;51.376;10.874;2023-03-14T01:31:03;97220.28;;;12.55;55.38
46714;BME280;32445;51.376;10.874;2023-03-14T01:34:04;97210.72;;;12.55;55.33
46714;BME280;32445;51.376;10.874;2023-03-14T01:37:04;97207.25;;;12.55;54.89
46714;BME280;32445;51.376;10.874;2023-03-14T01:40:05;97191.53;;;12.56;55.28
46714;BME280;32445;51.376;10.874;2023-03-14T01:43:17;97172.50;;;12.56;55.04
46714;BME280;32445;51.376;10.874;2023-03-14T01:46:38;97174.16;;;12.57;54.81
46714;BME280;32445;51.376;10.874;2023-03-14T01:49:39;97169.44;;;12.62;54.98
46714;BME280;32445;51.376;10.874;2023-03-14T01:52:43;97170.91;;;12.66;54.75
46714;BME280;32445;51.376;10.874;2023-03-14T01:55:44;97168.50;;;12.63;54.70
46714;BME280;32445;51.376;10.874;2023-03-14T01:58:47;97162.78;;;12.58;54.25
46714;BME280;32445;51.376;10.874;2023-03-14T02:01:50;97136.19;;;12.54;53.91
46714;BME280;32445;51.376;10.874;2023-03-14T02:04:53;97158.03;;;12.52;53.88
46714;BME280;32445;51.376;10.874;2023-03-14T02:07:58;97161.09;;;12.45;53.76
46714;BME280;32445;51.376;10.874;2023-03-14T02:10:59;97150.91;;;12.42;53.52
46714;BME280;32445;51.376;10.874;2023-03-14T02:13:59;97141.53;;;12.40;53.63
46714;BME280;32445;51.376;10.874;2023-03-14T02:17:03;97149.56;;;12.37;53.99
46714;BME280;32445;51.376;10.874;2023-03-14T02:20:22;97148.84;;;12.35;54.00
46714;BME280;32445;51.376;10.874;2023-03-14T02:26:40;97144.91;;;12.29;54.41
46714;BME280;32445;51.376;10.874;2023-03-14T02:29:52;97146.56;;;12.30;54.38
46714;BME280;32445;51.376;10.874;2023-03-14T02:33:08;97136.16;;;12.30;54.36
46714;BME280;32445;51.376;10.874;2023-03-14T02:36:11;97128.25;;;12.32;54.12
46714;BME280;32445;51.376;10.874;2023-03-14T02:39:39;97108.38;;;12.31;54.43
46714;BME280;32445;51.376;10.874;2023-03-14T02:42:40;97098.47;;;12.36;54.30
46714;BME280;32445;51.376;10.874;2023-03-14T02:45:44;97107.09;;;12.36;54.48
46714;BME280;32445;51.376;10.874;2023-03-14T02:51:51;97103.56;;;12.37;54.47
46714;BME280;32445;51.376;10.874;2023-03-14T02:54:51;97119.28;;;12.36;54.39
46714;BME280;32445;51.376;10.874;2023-03-14T02:57:52;97108.88;;;12.36;54.41
46714;BME280;32445;51.376;10.874;2023-03-14T03:00:53;97111.16;;;12.40;54.44
46714;BME280;32445;51.376;10.874;2023-03-14T03:03:54;97110.09;;;12.43;54.71
46714;BME280;32445;51.376;10.874;2023-03-14T03:06:54;97116.97;;;12.44;54.47
46714;BME280;32445;51.376;10.874;2023-03-14T03:09:54;97109.16;;;12.44;54.63
46714;BME280;32445;51.376;10.874;2023-03-14T03:12:55;97106.69;;;12.42;54.72
46714;BME280;32445;51.376;10.874;2023-03-14T03:15:55;97099.00;;;12.41;54.94
46714;BME280;32445;51.376;10.874;2023-03-14T03:18:55;97085.97;;;12.41;54.80
46714;BME280;32445;51.376;10.874;2023-03-14T03:21:56;97078.06;;;12.42;55.08
46714;BME280;32445;51.376;10.874;2023-03-14T03:24:57;97072.00;;;12.42;54.72
46714;BME280;32445;51.376;10.874;2023-03-14T03:27:58;97077.31;;;12.40;54.96
46714;BME280;32445;51.376;10.874;2023-03-14T03:30:58;97070.47;;;12.39;55.18
46714;BME280;32445;51.376;10.874;2023-03-14T03:33:58;97067.78;;;12.41;55.36
46714;BME280;32445;51.376;10.874;2023-03-14T03:36:59;97065.16;;;12.41;55.14
46714;BME280;32445;51.376;10.874;2023-03-14T03:39:59;97083.56;;;12.38;55.36
46714;BME280;32445;51.376;10.874;2023-03-14T03:43:00;97072.34;;;12.37;55.20
46714;BME280;32445;51.376;10.874;2023-03-14T03:46:05;97067.16;;;12.37;55.08
46714;BME280;32445;51.376;10.874;2023-03-14T03:49:05;97067.16;;;12.37;55.15
46714;BME280;32445;51.376;10.874;2023-03-14T03:52:06;97069.16;;;12.34;55.22
46714;BME280;32445;51.376;10.874;2023-03-14T03:55:07;97059.78;;;12.31;55.58
46714;BME280;32445;51.376;10.874;2023-03-14T03:58:07;97062.28;;;12.33;55.34
46714;BME280;32445;51.376;10.874;2023-03-14T04:01:08;97067.38;;;12.34;55.25
46714;BME280;32445;51.376;10.874;2023-03-14T04:04:09;97062.16;;;12.34;55.29
46714;BME280;32445;51.376;10.874;2023-03-14T04:07:09;97041.25;;;12.36;55.41
46714;BME280;32445;51.376;10.874;2023-03-14T04:10:10;97060.63;;;12.32;55.74
46714;BME280;32445;51.376;10.874;2023-03-14T04:13:10;97056.56;;;12.27;55.87
46714;BME280;32445;51.376;10.874;2023-03-14T04:16:17;97047.31;;;12.23;55.83
46714;BME280;32445;51.376;10.874;2023-03-14T04:19:18;97055.97;;;12.24;55.84
46714;BME280;32445;51.376;10.874;2023-03-14T04:22:19;97055.97;;;12.24;55.80
46714;BME280;32445;51.376;10.874;2023-03-14T04:25:19;97032.06;;;12.19;55.61
46714;BME280;32445;51.376;10.874;2023-03-14T04:28:20;97024.38;;;12.17;55.96
46714;BME280;32445;51.376;10.874;2023-03-14T04:31:21;97016.56;;;12.17;55.43
46714;BME280;32445;51.376;10.874;2023-03-14T04:34:21;97037.72;;;12.13;56.19
46714;BME280;32445;51.376;10.874;2023-03-14T04:37:22;97027.53;;;12.09;55.96
46714;BME280;32445;51.376;10.874;2023-03-14T04:40:22;97030.25;;;12.08;56.00
46714;BME280;32445;51.376;10.874;2023-03-14T04:43:22;97025.16;;;12.06;56.01
46714;BME280;32445;51.376;10.874;2023-03-14T04:46:23;97019.97;;;12.06;55.65
46714;BME280;32445;51.376;10.874;2023-03-14T04:49:23;97009.66;;;12.05;55.56
46714;BME280;32445;51.376;10.874;2023-03-14T04:52:24;97012.47;;;12.02;55.84
46714;BME280;32445;51.376;10.874;2023-03-14T04:55:24;97012.81;;;11.97;55.59
46714;BME280;32445;51.376;10.874;2023-03-14T04:58:24;97014.59;;;11.97;55.94
46714;BME280;32445;51.376;10.874;2023-03-14T05:01:25;96998.25;;;11.94;55.61
46714;BME280;32445;51.376;10.874;2023-03-14T05:04:25;97000.75;;;11.96;55.97
46714;BME280;32445;51.376;10.874;2023-03-14T05:07:26;96997.22;;;11.97;56.13
46714;BME280;32445;51.376;10.874;2023-03-14T05:10:27;97007.00;;;11.93;55.95
46714;BME280;32445;51.376;10.874;2023-03-14T05:13:27;97012.25;;;11.92;56.23
46714;BME280;32445;51.376;10.874;2023-03-14T05:16:28;97013.22;;;11.91;56.02
46714;BME280;32445;51.376;10.874;2023-03-14T05:19:28;96994.19;;;11.90;55.99
46714;BME280;32445;51.376;10.874;2023-03-14T05:22:28;96999.81;;;11.84;56.08
46714;BME280;32445;51.376;10.874;2023-03-14T05:25:29;96998.16;;;11.83;56.23
46714;BME280;32445;51.376;10.874;2023-03-14T05:28:29;96997.22;;;11.84;55.96
46714;BME280;32445;51.376;10.874;2023-03-14T05:31:29;97000.44;;;11.88;56.38
46714;BME280;32445;51.376;10.874;2023-03-14T05:34:30;97004.22;;;11.84;56.00
46714;BME280;32445;51.376;10.874;2023-03-14T05:37:30;97000.97;;;11.80;55.82
46714;BME280;32445;51.376;10.874;2023-03-14T05:40:31;97010.44;;;11.81;56.11
46714;BME280;32445;51.376;10.874;2023-03-14T05:43:31;97008.56;;;11.83;56.14
46714;BME280;32445;51.376;10.874;2023-03-14T05:46:31;97012.13;;;11.82;56.41
46714;BME280;32445;51.376;10.874;2023-03-14T05:49:32;97004.91;;;11.86;55.86
46714;BME280;32445;51.376;10.874;2023-03-14T05:52:32;97009.19;;;11.87;55.91
46714;BME280;32445;51.376;10.874;2023-03-14T05:55:32;97006.06;;;11.82;55.88
46714;BME280;32445;51.376;10.874;2023-03-14T05:58:33;97009.72;;;11.79;55.92
46714;BME280;32445;51.376;10.874;2023-03-14T06:01:33;97000.28;;;11.78;55.94
46714;BME280;32445;51.376;10.874;2023-03-14T06:04:33;97008.06;;;11.78;56.23
46714;BME280;32445;51.376;10.874;2023-03-14T06:07:34;97007.97;;;11.80;56.09
46714;BME280;32445;51.376;10.874;2023-03-14T06:10:35;97007.22;;;11.77;55.83
46714;BME280;32445;51.376;10.874;2023-03-14T06:13:36;97013.28;;;11.78;55.93
46714;BME280;32445;51.376;10.874;2023-03-14T06:16:36;97029.78;;;11.77;55.66
46714;BME280;32445;51.376;10.874;2023-03-14T06:19:37;97025.41;;;11.77;55.81
46714;BME280;32445;51.376;10.874;2023-03-14T06:22:37;97021.88;;;11.78;55.26
46714;BME280;32445;51.376;10.874;2023-03-14T06:25:38;97041.84;;;11.78;55.79
46714;BME280;32445;51.376;10.874;2023-03-14T06:28:39;97028.22;;;11.74;55.72
46714;BME280;32445;51.376;10.874;2023-03-14T06:31:39;97023.88;;;11.75;55.59
46714;BME280;32445;51.376;10.874;2023-03-14T06:34:50;97013.59;;;11.73;55.61
46714;BME280;32445;51.376;10.874;2023-03-14T06:37:50;97022.09;;;11.75;55.53
46714;BME280;32445;51.376;10.874;2023-03-14T06:40:51;97009.81;;;11.77;55.15
46714;BME280;32445;51.376;10.874;2023-03-14T06:43:52;97005.47;;;11.78;55.12
46714;BME280;32445;51.376;10.874;2023-03-14T06:46:52;97015.25;;;11.74;54.86
46714;BME280;32445;51.376;10.874;2023-03-14T06:49:52;97004.97;;;11.73;55.09
46714;BME280;32445;51.376;10.874;2023-03-14T06:52:53;97005.69;;;11.75;55.32
46714;BME280;32445;51.376;10.874;2023-03-14T06:55:53;97005.47;;;11.78;55.15
46714;BME280;32445;51.376;10.874;2023-03-14T06:58:53;97017.91;;;11.86;55.52
46714;BME280;32445;51.376;10.874;2023-03-14T07:01:54;97028.94;;;11.89;55.03
46714;BME280;32445;51.376;10.874;2023-03-14T07:04:54;97024.66;;;11.88;55.14
46714;BME280;32445;51.376;10.874;2023-03-14T07:07:55;97014.38;;;11.87;55.25
46714;BME280;32445;51.376;10.874;2023-03-14T07:10:56;97018.31;;;11.92;55.66
46714;BME280;32445;51.376;10.874;2023-03-14T07:13:56;97020.84;;;11.94;55.51
46714;BME280;32445;51.376;10.874;2023-03-14T07:16:57;97013.94;;;11.93;55.27
46714;BME280;32445;51.376;10.874;2023-03-14T07:19:57;97014.97;;;11.90;55.22
46714;BME280;32445;51.376;10.874;2023-03-14T07:22:59;97008.13;;;11.89;55.41
46714;BME280;32445;51.376;10.874;2023-03-14T07:26:03;97014.28;;;11.88;55.07
46714;BME280;32445;51.376;10.874;2023-03-14T07:29:04;97018.66;;;11.88;55.30
46714;BME280;32445;51.376;10.874;2023-03-14T07:32:04;97035.78;;;11.90;55.83
46714;BME280;32445;51.376;10.874;2023-03-14T07:35:05;97041.09;;;11.89;56.05
46714;BME280;32445;51.376;10.874;2023-03-14T07:38:06;97044.84;;;11.85;57.04
46714;BME280;32445;51.376;10.874;2023-03-14T07:41:07;97038.00;;;11.84;57.32
46714;BME280;32445;51.376;10.874;2023-03-14T07:44:07;97028.31;;;11.86;57.78
46714;BME280;32445;51.376;10.874;2023-03-14T07:47:08;97020.50;;;11.86;58.07
46714;BME280;32445;51.376;10.874;2023-03-14T07:50:09;97019.13;;;11.93;58.11
46714;BME280;32445;51.376;10.874;2023-03-14T07:53:09;97016.34;;;11.96;57.62
46714;BME280;32445;51.376;10.874;2023-03-14T07:56:10;97022.50;;;11.95;58.28
46714;BME280;32445;51.376;10.874;2023-03-14T07:59:11;97019.78;;;11.97;58.12
46714;BME280;32445;51.376;10.874;2023-03-14T08:02:12;97013.50;;;11.99;57.75
46714;BME280;32445;51.376;10.874;2023-03-14T08:05:13;97011.44;;;12.04;57.66
46714;BME280;32445;51.376;10.874;2023-03-14T08:08:13;97012.25;;;12.05;57.43
46714;BME280;32445;51.376;10.874;2023-03-14T08:11:14;96995.81;;;12.04;57.45
46714;BME280;32445;51.376;10.874;2023-03-14T08:14:14;96983.56;;;12.06;57.73
46714;BME280;32445;51.376;10.874;2023-03-14T08:17:14;96989.84;;;12.15;57.57
46714;BME280;32445;51.376;10.874;2023-03-14T08:20:15;96993.78;;;12.21;57.35
46714;BME280;32445;51.376;10.874;2023-03-14T08:23:15;96982.41;;;12.22;56.86
46714;BME280;32445;51.376;10.874;2023-03-14T08:26:16;96970.38;;;12.21;56.84
46714;BME280;32445;51.376;10.874;2023-03-14T08:29:16;96965.78;;;12.24;56.95
46714;BME280;32445;51.376;10.874;2023-03-14T08:32:16;96978.13;;;12.34;56.78
46714;BME280;32445;51.376;10.874;2023-03-14T08:35:17;96962.84;;;12.40;56.46
46714;BME280;32445;51.376;10.874;2023-03-14T08:38:18;96977.53;;;12.41;55.93
46714;BME280;32445;51.376;10.874;2023-03-14T08:41:18;96963.81;;;12.39;56.17
46714;BME280;32445;51.376;10.874;2023-03-14T08:44:19;96959.44;;;12.40;55.96
46714;BME280;32445;51.376;10.874;2023-03-14T08:47:19;96982.84;;;12.40;55.92
46714;BME280;32445;51.376;10.874;2023-03-14T08:50:20;96990.88;;;12.37;55.40
46714;BME280;32445;51.376;10.874;2023-03-14T08:53:20;96981.31;;;12.37;55.34
46714;BME280;32445;51.376;10.874;2023-03-14T08:56:22;96987.44;;;12.36;55.78
46714;BME280;32445;51.376;10.874;2023-03-14T08:59:23;96980.25;;;12.40;55.31
46714;BME280;32445;51.376;10.874;2023-03-14T09:02:25;96977.53;;;12.41;55.57
46714;BME280;32445;51.376;10.874;2023-03-14T09:05:25;96973.75;;;12.45;55.23
46714;BME280;32445;51.376;10.874;2023-03-14T09:08:25;96961.56;;;12.46;54.76
46714;BME280;32445;51.376;10.874;2023-03-14T09:11:26;96973.03;;;12.43;54.68
46714;BME280;32445;51.376;10.874;2023-03-14T09:14:26;96982.63;;;12.43;55.12
46714;BME280;32445;51.376;10.874;2023-03-14T09:17:27;96986.66;;;12.47;54.79
46714;BME280;32445;51.376;10.874;2023-03-14T09:20:27;96996.72;;;12.52;54.69
46714;BME280;32445;51.376;10.874;2023-03-14T09:23:28;96973.91;;;12.55;54.51
46714;BME280;32445;51.376;10.874;2023-03-14T09:26:28;96978.03;;;12.58;54.81
46714;BME280;32445;51.376;10.874;2023-03-14T09:29:29;96976.75;;;12.63;54.48
46714;BME280;32445;51.376;10.874;2023-03-14T09:32:30;96979.84;;;12.69;54.27
46714;BME280;32445;51.376;10.874;2023-03-14T09:35:33;96980.47;;;12.72;54.32
46714;BME280;32445;51.376;10.874;2023-03-14T09:38:34;96992.66;;;12.83;54.26
46714;BME280;32445;51.376;10.874;2023-03-14T09:41:37;96974.69;;;12.91;54.10
46714;BME280;32445;51.376;10.874;2023-03-14T09:44:45;96988.88;;;12.98;53.84
46714;BME280;32445;51.376;10.874;2023-03-14T09:47:51;97007.94;;;12.99;53.29
46714;BME280;32445;51.376;10.874;2023-03-14T09:50:54;96998.69;;;12.95;53.63
46714;BME280;32445;51.376;10.874;2023-03-14T09:53:55;97016.47;;;13.01;53.98
46714;BME280;32445;51.376;10.874;2023-03-14T09:56:55;97014.34;;;13.06;53.69
46714;BME280;32445;51.376;10.874;2023-03-14T09:59:58;97028.91;;;13.09;53.71
46714;BME280;32445;51.376;10.874;2023-03-14T10:06:15;97032.00;;;13.14;53.58
46714;BME280;32445;51.376;10.874;2023-03-14T10:09:23;97020.16;;;13.10;53.48
46714;BME280;32445;51.376;10.874;2023-03-14T10:12:35;97020.50;;;13.05;53.77
46714;BME280;32445;51.376;10.874;2023-03-14T10:15:36;97026.66;;;13.04;53.89
46714;BME280;32445;51.376;10.874;2023-03-14T10:18:37;97017.06;;;13.05;54.45
46714;BME280;32445;51.376;10.874;2023-03-14T10:21:40;97022.38;;;13.03;54.71
46714;BME280;32445;51.376;10.874;2023-03-14T10:24:46;97032.53;;;12.95;55.29
46714;BME280;32445;51.376;10.874;2023-03-14T10:27:46;97019.88;;;12.90;55.84
46714;BME280;32445;51.376;10.874;2023-03-14T10:30:47;97013.47;;;12.83;55.85
46714;BME280;32445;51.376;10.874;2023-03-14T10:33:59;97014.66;;;12.79;56.26
46714;BME280;32445;51.376;10.874;2023-03-14T10:37:22;97021.75;;;12.77;56.36
46714;BME280;32445;51.376;10.874;2023-03-14T10:40:32;97014.28;;;12.84;56.72
46714;BME280;32445;51.376;10.874;2023-03-14T10:43:35;97022.22;;;12.82;56.57
46714;BME280;32445;51.376;10.874;2023-03-14T10:46:36;97027.53;;;12.80;56.54
46714;BME280;32445;51.376;10.874;2023-03-14T10:49:37;97020.34;;;12.84;56.97
46714;BME280;32445;51.376;10.874;2023-03-14T10:52:46;97029.09;;;12.83;56.80
46714;BME280;32445;51.376;10.874;2023-03-14T10:55:48;97044.00;;;12.81;56.89
46714;BME280;32445;51.376;10.874;2023-03-14T10:58:51;97055.47;;;12.78;57.14
46714;BME280;32445;51.376;10.874;2023-03-14T11:01:55;97041.97;;;12.73;57.36
46714;BME280;32445;51.376;10.874;2023-03-14T11:05:10;97035.13;;;12.72;57.24
46714;BME280;32445;51.376;10.874;2023-03-14T11:08:23;97036.63;;;12.75;57.47
46714;BME280;32445;51.376;10.874;2023-03-14T11:11:28;97022.56;;;12.77;57.30
46714;BME280;32445;51.376;10.874;2023-03-14T11:14:42;97025.91;;;12.79;57.57
46714;BME280;32445;51.376;10.874;2023-03-14T11:18:06;97021.16;;;12.85;57.22
46714;BME280;32445;51.376;10.874;2023-03-14T11:28:29;97016.81;;;12.85;57.15
46714;BME280;32445;51.376;10.874;2023-03-14T11:31:35;97020.00;;;12.89;57.29
46714;BME280;32445;51.376;10.874;2023-03-14T11:34:47;97012.06;;;12.90;57.57
46714;BME280;32445;51.376;10.874;2023-03-14T11:41:26;97021.19;;;12.96;57.44
46714;BME280;32445;51.376;10.874;2023-03-14T11:44:36;97032.31;;;12.98;57.19
46714;BME280;32445;51.376;10.874;2023-03-14T11:47:41;97014.94;;;12.98;57.07
46714;BME280;32445;51.376;10.874;2023-03-14T11:50:44;97027.00;;;13.00;57.02
46714;BME280;32445;51.376;10.874;2023-03-14T11:54:00;97041.31;;;12.94;56.41
46714;BME280;32445;51.376;10.874;2023-03-14T11:57:10;97020.59;;;12.92;56.42
46714;BME280;32445;51.376;10.874;2023-03-14T12:00:24;97021.31;;;12.94;56.95
46714;BME280;32445;51.376;10.874;2023-03-14T12:03:57;97023.78;;;12.96;57.06
46714;BME280;32445;51.376;10.874;2023-03-14T12:07:05;97014.94;;;12.98;56.85
46714;BME280;32445;51.376;10.874;2023-03-14T12:10:09;97013.16;;;12.99;56.43
46714;BME280;32445;51.376;10.874;2023-03-14T12:13:10;97007.94;;;12.99;56.04
46714;BME280;32445;51.376;10.874;2023-03-14T12:22:33;96988.31;;;13.18;55.99
46714;BME280;32445;51.376;10.874;2023-03-14T12:25:35;96979.56;;;13.30;55.87
46714;BME280;32445;51.376;10.874;2023-03-14T12:28:35;96989.28;;;13.39;55.65
46714;BME280;32445;51.376;10.874;2023-03-14T12:34:41;96976.25;;;13.39;54.90
46714;BME280;32445;51.376;10.874;2023-03-14T12:37:46;97005.50;;;13.43;54.75
46714;BME280;32445;51.376;10.874;2023-03-14T12:50:38;96986.66;;;13.39;54.16
46714;BME280;32445;51.376;10.874;2023-03-14T12:53:47;96972.69;;;13.40;54.44
46714;BME280;32445;51.376;10.874;2023-03-14T13:00:32;96971.88;;;13.51;54.86
46714;BME280;32445;51.376;10.874;2023-03-14T13:03:45;96955.13;;;13.54;55.04
46714;BME280;32445;51.376;10.874;2023-03-14T13:06:54;96963.19;;;13.62;55.07
46714;BME280;32445;51.376;10.874;2023-03-14T13:13:17;96951.69;;;13.64;55.59
46714;BME280;32445;51.376;10.874;2023-03-14T13:16:21;96960.22;;;13.66;55.60
46714;BME280;32445;51.376;10.874;2023-03-14T13:19:24;96980.25;;;13.66;55.40
46714;BME280;32445;51.376;10.874;2023-03-14T13:22:27;96979.66;;;13.62;55.65
46714;BME280;32445;51.376;10.874;2023-03-14T13:25:30;96969.81;;;13.66;56.12
46714;BME280;32445;51.376;10.874;2023-03-14T13:28:34;96995.28;;;13.62;56.20
46714;BME280;32445;51.376;10.874;2023-03-14T13:31:35;97006.31;;;13.55;56.80
46714;BME280;32445;51.376;10.874;2023-03-14T13:34:35;97019.34;;;13.43;57.03
46714;BME280;32445;51.376;10.874;2023-03-14T13:37:39;97020.06;;;13.34;57.93
46714;BME280;32445;51.376;10.874;2023-03-14T13:40:42;97016.84;;;13.30;57.87
46714;BME280;32445;51.376;10.874;2023-03-14T13:43:44;97071.53;;;13.19;57.90
46714;BME280;32445;51.376;10.874;2023-03-14T13:46:44;97085.91;;;12.89;56.47
46714;BME280;32445;51.376;10.874;2023-03-14T13:49:46;97092.00;;;12.66;55.55
46714;BME280;32445;51.376;10.874;2023-03-14T13:52:54;97110.38;;;12.51;55.54
46714;BME280;32445;51.376;10.874;2023-03-14T13:55:55;97127.97;;;12.48;55.65
46714;BME280;32445;51.376;10.874;2023-03-14T13:58:55;97140.91;;;12.36;56.31
46714;BME280;32445;51.376;10.874;2023-03-14T14:01:58;97148.91;;;12.09;56.65
46714;BME280;32445;51.376;10.874;2023-03-14T14:05:00;97159.94;;;11.87;56.90
46714;BME280;32445;51.376;10.874;2023-03-14T14:08:02;97175.44;;;11.63;55.85
46714;BME280;32445;51.376;10.874;2023-03-14T14:11:04;97189.66;;;11.31;55.81
46714;BME280;32445;51.376;10.874;2023-03-14T14:14:12;97200.38;;;10.99;56.65
46714;BME280;32445;51.376;10.874;2023-03-14T14:17:18;97226.09;;;10.89;56.57
46714;BME280;32445;51.376;10.874;2023-03-14T14:20:33;97235.97;;;10.70;55.54
46714;BME280;32445;51.376;10.874;2023-03-14T14:23:35;97254.91;;;10.58;55.64
46714;BME280;32445;51.376;10.874;2023-03-14T14:26:40;97277.44;;;10.43;56.06
46714;BME280;32445;51.376;10.874;2023-03-14T14:29:41;97303.91;;;10.19;55.62
46714;BME280;32445;51.376;10.874;2023-03-14T14:32:41;97317.66;;;9.91;54.27
46714;BME280;32445;51.376;10.874;2023-03-14T14:35:42;97332.03;;;9.66;54.30
46714;BME280;32445;51.376;10.874;2023-03-14T14:38:51;97362.28;;;9.49;55.15
46714;BME280;32445;51.376;10.874;2023-03-14T14:41:53;97398.06;;;9.43;55.27
46714;BME280;32445;51.376;10.874;2023-03-14T14:44:53;97405.09;;;9.09;54.24
46714;BME280;32445;51.376;10.874;2023-03-14T14:48:03;97430.06;;;8.76;54.60
46714;BME280;32445;51.376;10.874;2023-03-14T14:51:06;97437.03;;;8.58;54.09
46714;BME280;32445;51.376;10.874;2023-03-14T14:54:35;97457.69;;;8.41;55.46
46714;BME280;32445;51.376;10.874;2023-03-14T14:57:38;97475.94;;;8.38;55.70
46714;BME280;32445;51.376;10.874;2023-03-14T15:00:41;97480.53;;;8.32;55.87
46714;BME280;32445;51.376;10.874;2023-03-14T15:03:43;97512.28;;;8.17;55.79
46714;BME280;32445;51.376;10.874;2023-03-14T15:06:46;97521.47;;;8.05;56.21
46714;BME280;32445;51.376;10.874;2023-03-14T15:09:48;97539.22;;;7.94;56.33
46714;BME280;32445;51.376;10.874;2023-03-14T15:12:48;97556.09;;;7.82;56.52
46714;BME280;32445;51.376;10.874;2023-03-14T15:15:52;97577.94;;;7.75;56.56
46714;BME280;32445;51.376;10.874;2023-03-14T15:19:00;97602.44;;;7.66;56.94
46714;BME280;32445;51.376;10.874;2023-03-14T15:22:01;97609.16;;;7.51;57.07
46714;BME280;32445;51.376;10.874;2023-03-14T15:25:01;97624.13;;;7.43;57.08
46714;BME280;32445;51.376;10.874;2023-03-14T15:28:02;97638.00;;;7.40;57.49
46714;BME280;32445;51.376;10.874;2023-03-14T15:31:02;97642.41;;;7.38;57.07
46714;BME280;32445;51.376;10.874;2023-03-14T15:34:03;97656.69;;;7.26;57.54
46714;BME280;32445;51.376;10.874;2023-03-14T15:37:03;97643.47;;;7.14;57.69
46714;BME280;32445;51.376;10.874;2023-03-14T15:40:10;97645.66;;;7.02;58.00
46714;BME280;32445;51.376;10.874;2023-03-14T15:43:13;97648.38;;;6.98;58.33
46714;BME280;32445;51.376;10.874;2023-03-14T15:46:14;97663.84;;;6.99;58.49
46714;BME280;32445;51.376;10.874;2023-03-14T15:49:17;97686.38;;;6.94;57.92
46714;BME280;32445;51.376;10.874;2023-03-14T15:52:17;97709.91;;;6.86;58.10
46714;BME280;32445;51.376;10.874;2023-03-14T15:55:17;97707.56;;;6.80;57.91
46714;BME280;32445;51.376;10.874;2023-03-14T15:58:19;97719.69;;;6.78;57.63
46714;BME280;32445;51.376;10.874;2023-03-14T16:01:19;97730.06;;;6.77;58.24
46714;BME280;32445;51.376;10.874;2023-03-14T16:04:20;97733.78;;;6.69;58.14
46714;BME280;32445;51.376;10.874;2023-03-14T16:07:20;97748.47;;;6.67;58.07
46714;BME280;32445;51.376;10.874;2023-03-14T16:10:20;97764.78;;;6.68;58.59
46714;BME280;32445;51.376;10.874;2023-03-14T16:13:21;97759.00;;;6.61;58.43
46714;BME280;32445;51.376;10.874;2023-03-14T16:16:21;97777.19;;;6.58;58.69
46714;BME280;32445;51.376;10.874;2023-03-14T16:19:21;97792.53;;;6.61;59.57
46714;BME280;32445;51.376;10.874;2023-03-14T16:22:22;97792.34;;;6.66;58.85
46714;BME280;32445;51.376;10.874;2023-03-14T16:25:22;97815.44;;;6.69;58.65
46714;BME280;32445;51.376;10.874;2023-03-14T16:28:23;97833.38;;;6.72;58.22
46714;BME280;32445;51.376;10.874;2023-03-14T16:31:24;97840.22;;;6.73;58.35
46714;BME280;32445;51.376;10.874;2023-03-14T16:34:25;97853.09;;;6.73;58.22
46714;BME280;32445;51.376;10.874;2023-03-14T16:37:25;97860.91;;;6.71;57.54
46714;BME280;32445;51.376;10.874;2023-03-14T16:40:26;97867.13;;;6.66;57.77